Terminal Aerodrome Forecast
Issued by NWS

Home | Current Version | Previous Version | Text Only | Print | Product List | Glossary On
Versions: 1 2 3 4 5 6 7 8 9 10 11 12 13 14 15 16 17
000
FTUS43 KILX 252329
TAFCMI
TAF
KCMI 252329Z 2600/2624 19015KT P6SM BKN120
     FM260200 18009KT P6SM BKN120
     FM261300 18011KT P6SM VCTS SCT050CB BKN200
     FM261500 20013KT P6SM SCT050
     FM262000 20015KT P6SM VCTS BKN050CB=

USA.gov is the U.S. government's official web portal to all federal, state and local government web resources and services.